createdAt,value
2022-09-11T00:01:00.845Z,22.57
2022-09-11T00:03:28.455Z,22.54
2022-09-11T00:05:55.364Z,22.46
2022-09-11T00:08:22.201Z,22.48
2022-09-11T00:10:49.344Z,22.51
2022-09-11T00:13:19.659Z,22.50
2022-09-11T00:15:46.608Z,22.53
2022-09-11T00:18:15.216Z,22.48
2022-09-11T00:20:50.755Z,22.46
2022-09-11T00:23:25.452Z,22.44
2022-09-11T00:25:52.463Z,22.40
2022-09-11T00:28:28.093Z,22.40
2022-09-11T00:31:02.657Z,22.51
2022-09-11T00:33:29.712Z,22.42
2022-09-11T00:35:59.975Z,22.39
2022-09-11T00:38:28.194Z,22.48
2022-09-11T00:40:59.315Z,22.51
2022-09-11T00:43:27.367Z,22.37
2022-09-11T00:46:03.967Z,22.48
2022-09-11T00:48:31.802Z,22.48
2022-09-11T00:50:59.188Z,22.41
2022-09-11T00:53:26.201Z,22.39
2022-09-11T00:55:56.182Z,22.42
2022-09-11T00:58:25.913Z,22.43
2022-09-11T01:00:53.709Z,22.43
2022-09-11T01:03:20.717Z,22.10
2022-09-11T01:05:48.312Z,22.41
2022-09-11T01:08:15.294Z,22.44
2022-09-11T01:11:03.766Z,22.45
2022-09-11T01:13:46.064Z,22.41
2022-09-11T01:16:41.511Z,22.39
2022-09-11T01:19:37.542Z,22.39
2022-09-11T01:22:17.508Z,22.38
2022-09-11T01:24:50.630Z,22.36
2022-09-11T01:27:42.402Z,22.38
2022-09-11T01:30:20.175Z,22.28
2022-09-11T01:32:52.801Z,22.22
2022-09-11T01:35:45.961Z,22.27
2022-09-11T01:38:13.237Z,22.29
2022-09-11T01:40:48.468Z,22.27
2022-09-11T01:43:17.231Z,22.31
2022-09-11T01:45:45.823Z,22.00
2022-09-11T01:48:15.067Z,22.25
2022-09-11T01:50:41.994Z,22.25
2022-09-11T01:53:09.912Z,22.25
2022-09-11T01:55:39.878Z,22.20
2022-09-11T01:58:09.266Z,22.15
2022-09-11T02:00:40.807Z,22.19
2022-09-11T02:03:10.714Z,22.19
2022-09-11T02:05:44.170Z,22.08
2022-09-11T02:08:47.134Z,22.21
2022-09-11T02:11:18.327Z,22.22
2022-09-11T02:13:49.972Z,22.10
2022-09-11T02:16:25.624Z,22.21
2022-09-11T02:19:05.710Z,22.14
2022-09-11T02:21:33.029Z,22.10
2022-09-11T02:24:00.800Z,22.10
2022-09-11T02:26:29.170Z,22.10
2022-09-11T02:28:56.428Z,22.23
2022-09-11T02:31:23.764Z,22.24
2022-09-11T02:33:50.645Z,22.21
2022-09-11T02:36:32.734Z,22.13
2022-09-11T02:39:24.595Z,22.18
2022-09-11T02:41:52.114Z,22.12
2022-09-11T02:44:24.867Z,22.11
2022-09-11T02:46:57.037Z,22.11
2022-09-11T02:49:47.306Z,21.97
2022-09-11T02:52:41.176Z,22.10
2022-09-11T02:55:12.794Z,22.10
2022-09-11T02:58:01.475Z,22.03
2022-09-11T03:00:29.757Z,21.99
2022-09-11T03:02:57.778Z,21.99
2022-09-11T03:05:24.620Z,22.20
2022-09-11T03:07:51.870Z,21.99
2022-09-11T03:10:18.754Z,21.95
2022-09-11T03:12:45.714Z,21.91
2022-09-11T03:15:12.619Z,22.04
2022-09-11T03:17:42.897Z,21.99
2022-09-11T03:20:10.049Z,22.00
2022-09-11T03:22:36.886Z,21.96
2022-09-11T03:25:04.518Z,21.92
2022-09-11T03:27:31.877Z,21.89
2022-09-11T03:29:59.631Z,22.03
2022-09-11T03:32:26.458Z,22.00
2022-09-11T03:34:55.583Z,22.09
2022-09-11T03:37:23.385Z,22.16
2022-09-11T03:39:50.361Z,22.16
2022-09-11T03:42:17.483Z,22.19
2022-09-11T03:44:45.613Z,22.20
2022-09-11T03:47:13.077Z,22.20
2022-09-11T03:49:40.400Z,22.18
2022-09-11T03:52:07.239Z,22.17
2022-09-11T03:54:34.428Z,22.18
2022-09-11T03:57:01.876Z,22.19
2022-09-11T03:59:29.218Z,22.18
2022-09-11T04:01:56.143Z,22.15
2022-09-11T04:04:23.966Z,22.14
2022-09-11T04:06:50.976Z,22.16
2022-09-11T04:09:18.508Z,22.13
2022-09-11T04:11:47.321Z,22.14
2022-09-11T04:14:22.490Z,22.15
2022-09-11T04:16:51.613Z,22.16
2022-09-11T04:19:18.935Z,22.13
2022-09-11T04:21:45.830Z,22.14
2022-09-11T04:24:13.177Z,22.13
2022-09-11T04:26:40.243Z,22.12
2022-09-11T04:29:13.050Z,22.04
2022-09-11T04:31:41.388Z,22.00
2022-09-11T04:34:09.602Z,22.02
2022-09-11T04:36:37.562Z,22.07
2022-09-11T04:39:05.516Z,21.85
2022-09-11T04:41:32.572Z,21.97
2022-09-11T04:44:05.285Z,21.97
2022-09-11T04:46:35.098Z,21.95
2022-09-11T04:49:05.120Z,21.94
2022-09-11T04:51:35.665Z,21.81
2022-09-11T04:54:03.596Z,21.95
2022-09-11T04:56:35.479Z,21.96
2022-09-11T04:59:09.609Z,21.94
2022-09-11T05:01:37.971Z,21.94
2022-09-11T05:04:05.366Z,21.91
2022-09-11T05:06:32.411Z,21.90
2022-09-11T05:09:04.316Z,21.89
2022-09-11T05:11:33.681Z,21.91
2022-09-11T05:14:00.763Z,21.89
2022-09-11T05:16:30.761Z,21.88
2022-09-11T05:18:58.855Z,21.88
2022-09-11T05:21:26.132Z,21.88
2022-09-11T05:23:54.940Z,21.88
2022-09-11T05:26:33.520Z,21.88
2022-09-11T05:29:10.042Z,21.84
2022-09-11T05:31:42.936Z,21.79
2022-09-11T05:34:11.411Z,21.79
2022-09-11T05:36:38.270Z,21.73
2022-09-11T05:39:05.115Z,21.77
2022-09-11T05:41:33.868Z,21.75
2022-09-11T05:44:00.761Z,21.76
2022-09-11T05:46:28.117Z,21.74
2022-09-11T05:48:59.834Z,21.75
2022-09-11T05:51:27.630Z,21.75
2022-09-11T05:53:58.163Z,21.74
2022-09-11T05:56:26.176Z,21.78
2022-09-11T05:58:58.714Z,21.75
2022-09-11T06:01:34.187Z,21.77
2022-09-11T06:04:12.435Z,21.76
2022-09-11T06:06:41.997Z,21.73
2022-09-11T06:09:08.908Z,21.74
2022-09-11T06:11:36.047Z,21.74
2022-09-11T06:14:03.721Z,21.70
2022-09-11T06:16:31.630Z,21.68
2022-09-11T06:19:05.717Z,21.66
2022-09-11T06:21:32.632Z,21.68
2022-09-11T06:24:08.499Z,21.68
2022-09-11T06:26:35.871Z,21.66
2022-09-11T06:29:03.210Z,21.67
2022-09-11T06:31:31.622Z,21.68
2022-09-11T06:33:58.481Z,21.67
2022-09-11T06:36:31.566Z,21.67
2022-09-11T06:39:01.122Z,21.67
2022-09-11T06:41:28.950Z,21.68
2022-09-11T06:44:05.160Z,21.67
2022-09-11T06:46:32.129Z,21.69
2022-09-11T06:49:00.597Z,21.67
2022-09-11T06:51:29.078Z,21.68
2022-09-11T06:53:58.509Z,21.72
2022-09-11T06:56:32.374Z,21.73
2022-09-11T06:59:00.728Z,21.74
2022-09-11T07:01:28.674Z,21.72
2022-09-11T07:04:02.125Z,21.68
2022-09-11T07:06:31.337Z,21.69
2022-09-11T07:09:03.434Z,21.66
2022-09-11T07:11:39.070Z,21.68
2022-09-11T07:14:06.611Z,21.68
2022-09-11T07:16:37.709Z,21.67
2022-09-11T07:19:10.025Z,21.66
2022-09-11T07:21:38.751Z,21.67
2022-09-11T07:24:07.096Z,21.67
2022-09-11T07:26:38.056Z,21.69
2022-09-11T07:29:12.728Z,21.68
2022-09-11T07:31:39.969Z,21.65
2022-09-11T07:34:07.075Z,21.68
2022-09-11T07:36:34.725Z,21.69
2022-09-11T07:39:04.355Z,21.73
2022-09-11T07:41:36.701Z,21.73
2022-09-11T07:44:09.940Z,21.71
2022-09-11T07:46:40.275Z,21.77
2022-09-11T07:49:10.043Z,21.81
2022-09-11T07:51:37.863Z,21.81
2022-09-11T07:54:06.496Z,21.83
2022-09-11T07:56:34.714Z,21.83
2022-09-11T07:59:06.455Z,21.69
2022-09-11T08:01:33.679Z,21.86
2022-09-11T08:04:06.242Z,21.85
2022-09-11T08:06:34.512Z,21.87
2022-09-11T08:09:08.789Z,21.90
2022-09-11T08:11:40.214Z,21.74
2022-09-11T08:14:07.993Z,21.94
2022-09-11T08:16:37.739Z,21.95
2022-09-11T08:19:05.086Z,21.94
2022-09-11T08:21:32.089Z,21.96
2022-09-11T08:24:00.505Z,21.96
2022-09-11T08:26:30.941Z,22.02
2022-09-11T08:29:00.007Z,22.01
2022-09-11T08:31:30.406Z,22.05
2022-09-11T08:33:59.085Z,22.09
2022-09-11T08:36:27.259Z,22.10
2022-09-11T08:38:55.278Z,22.14
2022-09-11T08:41:41.400Z,22.16
2022-09-11T08:44:09.680Z,22.20
2022-09-11T08:46:42.228Z,22.16
2022-09-11T08:49:25.441Z,22.22
2022-09-11T08:51:58.292Z,22.25
2022-09-11T08:54:33.591Z,22.22
2022-09-11T08:57:12.073Z,22.25
2022-09-11T08:59:54.759Z,22.28
2022-09-11T09:02:46.858Z,22.15
2022-09-11T09:05:23.273Z,22.29
2022-09-11T09:08:01.480Z,22.28
2022-09-11T09:10:52.246Z,22.31
2022-09-11T09:13:45.430Z,22.33
2022-09-11T09:16:39.507Z,22.37
2022-09-11T09:19:10.443Z,22.39
2022-09-11T09:21:40.587Z,22.41
2022-09-11T09:24:19.230Z,22.42
2022-09-11T09:26:56.263Z,22.48
2022-09-11T09:29:25.709Z,22.49
2022-09-11T09:31:57.716Z,22.51
2022-09-11T09:34:25.634Z,22.53
2022-09-11T09:37:11.109Z,22.53
2022-09-11T09:39:38.131Z,22.55
2022-09-11T09:42:14.251Z,22.57
2022-09-11T09:45:11.669Z,22.61
2022-09-11T09:47:40.296Z,22.62
2022-09-11T09:50:21.264Z,22.62
2022-09-11T09:52:49.079Z,22.69
2022-09-11T09:55:17.777Z,22.73
2022-09-11T09:57:45.223Z,22.75
2022-09-11T10:00:14.499Z,22.73
2022-09-11T10:02:45.551Z,22.79
2022-09-11T10:05:24.284Z,22.80
2022-09-11T10:07:58.969Z,22.84
2022-09-11T10:10:39.159Z,22.93
2022-09-11T10:13:24.893Z,22.98
2022-09-11T10:16:03.744Z,23.02
2022-09-11T10:18:30.892Z,23.04
2022-09-11T10:21:12.880Z,23.04
2022-09-11T10:24:08.806Z,23.05
2022-09-11T10:26:39.740Z,23.08
2022-09-11T10:29:07.757Z,23.11
2022-09-11T10:31:36.271Z,23.17
2022-09-11T10:34:03.917Z,23.26
2022-09-11T10:36:31.707Z,23.30
2022-09-11T10:39:01.833Z,23.17
2022-09-11T10:41:34.939Z,23.37
2022-09-11T10:44:14.300Z,23.38
2022-09-11T10:46:42.418Z,23.42
2022-09-11T10:49:09.578Z,23.43
2022-09-11T10:51:43.070Z,23.49
2022-09-11T10:54:30.538Z,23.53
2022-09-11T10:57:00.210Z,23.48
2022-09-11T10:59:34.895Z,23.39
2022-09-11T11:02:03.210Z,23.45
2022-09-11T11:04:31.559Z,23.55
2022-09-11T11:07:15.148Z,23.62
2022-09-11T11:09:54.646Z,23.57
2022-09-11T11:12:38.960Z,23.57
2022-09-11T11:15:31.031Z,23.75
2022-09-11T11:18:19.604Z,23.67
2022-09-11T11:21:03.009Z,23.81
2022-09-11T11:23:48.070Z,23.88
2022-09-11T11:26:31.758Z,23.89
2022-09-11T11:28:58.712Z,23.88
2022-09-11T11:31:42.450Z,23.93
2022-09-11T11:34:17.149Z,23.93
2022-09-11T11:36:52.239Z,24.01
2022-09-11T11:39:22.663Z,24.03
2022-09-11T11:42:04.992Z,24.06
2022-09-11T11:44:36.131Z,24.00
2022-09-11T11:47:04.866Z,24.03
2022-09-11T11:49:43.974Z,24.06
2022-09-11T11:52:24.638Z,24.11
2022-09-11T11:55:18.757Z,24.12
2022-09-11T11:57:56.068Z,23.90
2022-09-11T12:00:23.073Z,24.21
2022-09-11T12:03:07.601Z,24.22
2022-09-11T12:05:34.746Z,24.24
2022-09-11T12:08:02.073Z,24.30
2022-09-11T12:10:34.527Z,24.31
2022-09-11T12:13:07.576Z,24.30
2022-09-11T12:15:35.688Z,24.38
2022-09-11T12:18:04.682Z,24.38
2022-09-11T12:20:34.080Z,24.41
2022-09-11T12:23:01.091Z,24.38
2022-09-11T12:25:31.122Z,24.48
2022-09-11T12:28:20.411Z,24.30
2022-09-11T12:31:11.427Z,24.48
2022-09-11T12:33:41.396Z,24.52
2022-09-11T12:36:29.705Z,24.52
2022-09-11T12:39:00.756Z,24.47
2022-09-11T12:41:34.960Z,24.45
2022-09-11T12:44:05.061Z,24.34
2022-09-11T12:46:31.767Z,24.42
2022-09-11T12:49:21.102Z,24.52
2022-09-11T12:51:56.069Z,24.52
2022-09-11T12:54:29.045Z,24.50
2022-09-11T12:57:04.442Z,24.52
2022-09-11T12:59:32.265Z,24.47
2022-09-11T13:01:59.159Z,24.41
2022-09-11T13:04:28.299Z,24.44
2022-09-11T13:06:57.260Z,24.48
2022-09-11T13:09:29.752Z,24.47
2022-09-11T13:11:58.094Z,24.37
2022-09-11T13:14:34.350Z,24.46
2022-09-11T13:17:02.527Z,24.49
2022-09-11T13:19:34.047Z,24.45
2022-09-11T13:22:00.969Z,24.42
2022-09-11T13:24:32.786Z,24.54
2022-09-11T13:27:07.323Z,24.54
2022-09-11T13:29:36.546Z,24.51
2022-09-11T13:32:11.579Z,24.56
2022-09-11T13:34:38.590Z,24.54
2022-09-11T13:37:09.688Z,24.55
2022-09-11T13:39:40.413Z,24.55
2022-09-11T13:42:10.009Z,24.56
2022-09-11T13:44:39.648Z,24.54
2022-09-11T13:47:31.529Z,24.56
2022-09-11T13:50:01.055Z,24.43
2022-09-11T13:52:31.540Z,24.38
2022-09-11T13:55:00.201Z,24.49
2022-09-11T13:57:31.993Z,24.51
2022-09-11T14:00:00.317Z,24.51
2022-09-11T14:02:31.127Z,24.54
2022-09-11T14:05:16.027Z,24.56
2022-09-11T14:08:07.585Z,24.55
2022-09-11T14:10:44.596Z,24.56
2022-09-11T14:13:27.678Z,24.55
2022-09-11T14:15:57.026Z,24.50
2022-09-11T14:19:02.816Z,24.50
2022-09-11T14:21:40.038Z,24.53
2022-09-11T14:24:24.595Z,24.55
2022-09-11T14:26:51.530Z,24.50
2022-09-11T14:29:33.948Z,24.51
2022-09-11T14:32:28.593Z,24.51
2022-09-11T14:34:55.525Z,24.51
2022-09-11T14:37:22.373Z,24.49
2022-09-11T14:39:56.365Z,24.50
2022-09-11T14:42:24.878Z,24.47
2022-09-11T14:44:51.748Z,24.55
2022-09-11T14:47:20.537Z,24.58
2022-09-11T14:49:47.446Z,24.63
2022-09-11T14:52:15.617Z,24.66
2022-09-11T14:54:42.850Z,24.61
2022-09-11T14:57:20.628Z,24.64
2022-09-11T14:59:48.074Z,24.64
2022-09-11T15:02:25.124Z,24.63
2022-09-11T15:04:53.057Z,24.61
2022-09-11T15:07:20.444Z,24.67
2022-09-11T15:09:47.259Z,24.66
2022-09-11T15:12:14.499Z,24.59
2022-09-11T15:14:58.694Z,24.58
2022-09-11T15:17:30.614Z,24.64
2022-09-11T15:19:59.477Z,24.63
2022-09-11T15:22:26.341Z,24.69
2022-09-11T15:24:53.636Z,24.73
2022-09-11T15:27:20.573Z,24.72
2022-09-11T15:29:47.408Z,24.71
2022-09-11T15:32:14.584Z,24.72
2022-09-11T15:34:42.065Z,24.72
2022-09-11T15:37:08.913Z,24.72
2022-09-11T15:39:35.918Z,24.71
2022-09-11T15:42:02.922Z,24.73
2022-09-11T15:44:29.824Z,24.70
2022-09-11T15:46:57.541Z,24.75
2022-09-11T15:49:24.575Z,24.71
2022-09-11T15:51:51.771Z,24.71
2022-09-11T15:54:20.660Z,24.72
2022-09-11T15:56:47.484Z,24.62
2022-09-11T15:59:15.330Z,24.70
2022-09-11T16:01:42.451Z,24.66
2022-09-11T16:04:10.935Z,24.68
2022-09-11T16:06:39.452Z,24.69
2022-09-11T16:09:08.035Z,24.68
2022-09-11T16:11:35.394Z,24.67
2022-09-11T16:14:02.319Z,24.56
2022-09-11T16:16:29.216Z,24.58
2022-09-11T16:18:58.550Z,24.68
2022-09-11T16:21:27.161Z,24.55
2022-09-11T16:24:00.686Z,24.55
2022-09-11T16:26:29.133Z,24.49
2022-09-11T16:28:56.225Z,24.51
2022-09-11T16:31:23.101Z,24.47
2022-09-11T16:33:50.336Z,24.56
2022-09-11T16:36:19.682Z,24.50
2022-09-11T16:38:46.843Z,24.51
2022-09-11T16:41:16.129Z,24.46
2022-09-11T16:43:45.003Z,24.22
2022-09-11T16:46:13.115Z,24.47
2022-09-11T16:48:40.043Z,24.45
2022-09-11T16:51:07.142Z,24.40
2022-09-11T16:53:34.507Z,24.44
2022-09-11T16:56:09.722Z,24.40
2022-09-11T16:58:36.993Z,24.27
2022-09-11T17:01:12.347Z,24.38
2022-09-11T17:03:41.493Z,24.18
2022-09-11T17:06:08.609Z,24.35
2022-09-11T17:08:35.835Z,24.30
2022-09-11T17:11:02.776Z,24.34
2022-09-11T17:13:29.737Z,24.32
2022-09-11T17:16:15.364Z,24.20
2022-09-11T17:18:47.482Z,24.14
2022-09-11T17:21:14.643Z,24.16
2022-09-11T17:23:41.540Z,24.12
2022-09-11T17:26:12.786Z,24.13
2022-09-11T17:28:40.217Z,24.14
2022-09-11T17:31:09.626Z,23.98
2022-09-11T17:33:38.247Z,24.05
2022-09-11T17:36:05.385Z,23.99
2022-09-11T17:38:32.231Z,23.92
2022-09-11T17:41:00.195Z,23.91
2022-09-11T17:43:27.145Z,23.99
2022-09-11T17:46:07.051Z,23.86
2022-09-11T17:48:35.207Z,23.90
2022-09-11T17:51:11.086Z,23.82
2022-09-11T17:53:39.495Z,23.91
2022-09-11T17:56:08.407Z,23.89
2022-09-11T17:58:35.358Z,23.85
2022-09-11T18:01:02.973Z,23.80
2022-09-11T18:03:31.032Z,23.64
2022-09-11T18:05:58.348Z,23.74
2022-09-11T18:08:26.441Z,23.59
2022-09-11T18:10:54.318Z,23.76
2022-09-11T18:13:24.204Z,23.75
2022-09-11T18:15:51.224Z,23.69
2022-09-11T18:18:18.117Z,23.72
2022-09-11T18:20:45.640Z,23.76
2022-09-11T18:23:12.610Z,23.73
2022-09-11T18:25:40.646Z,23.73
2022-09-11T18:28:09.773Z,23.70
2022-09-11T18:30:41.019Z,23.54
2022-09-11T18:33:10.916Z,23.52
2022-09-11T18:35:38.427Z,23.62
2022-09-11T18:38:05.935Z,23.58
2022-09-11T18:40:32.832Z,23.55
2022-09-11T18:43:00.088Z,23.54
2022-09-11T18:45:28.998Z,23.52
2022-09-11T18:47:55.849Z,23.42
2022-09-11T18:50:23.283Z,23.49
2022-09-11T18:52:51.538Z,23.45
2022-09-11T18:55:20.191Z,23.47
2022-09-11T18:57:49.112Z,23.45
2022-09-11T19:00:17.402Z,23.42
2022-09-11T19:02:45.407Z,23.29
2022-09-11T19:05:15.409Z,23.39
2022-09-11T19:07:44.045Z,23.37
2022-09-11T19:10:11.698Z,23.19
2022-09-11T19:12:39.503Z,23.27
2022-09-11T19:15:07.581Z,23.23
2022-09-11T19:17:35.099Z,23.21
2022-09-11T19:20:03.287Z,23.19
2022-09-11T19:22:31.238Z,23.20
2022-09-11T19:24:59.764Z,23.17
2022-09-11T19:27:26.701Z,23.10
2022-09-11T19:29:53.861Z,22.98
2022-09-11T19:32:23.543Z,22.97
2022-09-11T19:34:50.689Z,23.09
2022-09-11T19:37:20.172Z,23.07
2022-09-11T19:39:50.834Z,23.09
2022-09-11T19:42:17.978Z,23.03
2022-09-11T19:44:45.640Z,23.03
2022-09-11T19:47:12.538Z,22.96
2022-09-11T19:49:39.413Z,22.94
2022-09-11T19:52:08.220Z,23.00
2022-09-11T19:54:35.484Z,22.97
2022-09-11T19:57:02.562Z,22.87
2022-09-11T19:59:29.586Z,22.93
2022-09-11T20:01:56.502Z,22.98
2022-09-11T20:04:23.808Z,22.97
2022-09-11T20:09:30.991Z,22.91
2022-09-11T20:11:58.126Z,22.89
2022-09-11T20:14:24.999Z,22.85
2022-09-11T20:16:51.883Z,22.87
2022-09-11T20:19:20.223Z,22.84
2022-09-11T20:21:47.062Z,22.82
2022-09-11T20:24:14.983Z,22.82
2022-09-11T20:26:42.240Z,22.78
2022-09-11T20:29:12.992Z,22.75
2022-09-11T20:31:46.803Z,22.74
2022-09-11T20:34:17.706Z,22.69
2022-09-11T20:36:44.759Z,22.66
2022-09-11T20:39:13.436Z,22.68
2022-09-11T20:41:40.452Z,22.55
2022-09-11T20:44:07.277Z,22.70
2022-09-11T20:46:34.194Z,22.62
2022-09-11T20:49:01.237Z,22.65
2022-09-11T20:51:28.118Z,22.63
2022-09-11T20:53:55.439Z,22.64
2022-09-11T20:56:23.927Z,22.46
2022-09-11T20:58:51.218Z,22.61
2022-09-11T21:01:21.235Z,22.62
2022-09-11T21:03:50.018Z,22.52
2022-09-11T21:06:17.019Z,22.56
2022-09-11T21:08:44.419Z,22.59
2022-09-11T21:11:11.918Z,22.51
2022-09-11T21:13:39.868Z,22.47
2022-09-11T21:16:07.995Z,22.47
2022-09-11T21:18:34.987Z,22.45
2022-09-11T21:21:01.827Z,22.44
2022-09-11T21:23:28.751Z,22.28
2022-09-11T21:25:55.743Z,22.40
2022-09-11T21:28:22.657Z,22.41
2022-09-11T21:30:49.519Z,22.40
2022-09-11T21:33:16.517Z,22.35
2022-09-11T21:35:43.369Z,22.38
2022-09-11T21:38:10.253Z,22.38
2022-09-11T21:40:37.193Z,22.39
2022-09-11T21:43:04.397Z,22.41
2022-09-11T21:45:31.234Z,22.30
2022-09-11T21:47:58.189Z,22.33
2022-09-11T21:50:25.012Z,22.28
2022-09-11T21:52:52.006Z,22.31
2022-09-11T21:55:18.996Z,22.17
2022-09-11T21:57:45.818Z,22.24
2022-09-11T22:00:13.162Z,22.19
2022-09-11T22:02:40.372Z,22.23
2022-09-11T22:05:07.479Z,22.23
2022-09-11T22:07:34.439Z,22.22
2022-09-11T22:10:02.275Z,22.16
2022-09-11T22:12:29.343Z,22.18
2022-09-11T22:14:56.207Z,22.12
2022-09-11T22:17:23.307Z,22.14
2022-09-11T22:19:50.140Z,22.14
2022-09-11T22:22:17.062Z,22.15
2022-09-11T22:24:44.083Z,22.16
2022-09-11T22:27:10.977Z,22.14
2022-09-11T22:29:37.887Z,22.09
2022-09-11T22:32:05.375Z,22.07
2022-09-11T22:34:33.895Z,22.11
2022-09-11T22:37:00.803Z,22.08
2022-09-11T22:39:27.868Z,22.04
2022-09-11T22:41:54.728Z,22.02
2022-09-11T22:44:21.557Z,22.01
2022-09-11T22:46:49.003Z,22.00
2022-09-11T22:49:15.922Z,22.00
2022-09-11T22:51:42.922Z,21.98
2022-09-11T22:54:12.028Z,21.97
2022-09-11T22:56:38.870Z,21.95
2022-09-11T22:59:05.715Z,21.94
2022-09-11T23:01:32.700Z,21.89
2022-09-11T23:03:59.577Z,21.86
2022-09-11T23:06:45.178Z,21.85
2022-09-11T23:09:13.079Z,21.81
2022-09-11T23:11:40.107Z,21.79
2022-09-11T23:14:13.322Z,21.77
2022-09-11T23:16:41.271Z,21.73
2022-09-11T23:19:08.209Z,21.73
2022-09-11T23:21:35.600Z,21.74
2022-09-11T23:24:02.778Z,21.75
2022-09-11T23:26:29.853Z,21.70
2022-09-11T23:28:56.688Z,21.75
2022-09-11T23:31:31.204Z,21.75
2022-09-11T23:34:00.103Z,21.73
2022-09-11T23:36:27.269Z,21.64
2022-09-11T23:38:54.540Z,21.66
2022-09-11T23:41:21.471Z,21.67
2022-09-11T23:43:48.445Z,21.66
2022-09-11T23:46:15.612Z,21.67
2022-09-11T23:48:42.473Z,21.68
2022-09-11T23:51:10.354Z,21.64
2022-09-11T23:53:39.023Z,21.56
2022-09-11T23:56:06.889Z,21.49
2022-09-11T23:58:37.800Z,21.49
